Time,TemperatureF,DewpointF,PressureIn,WindDirection,WindDirectionDegrees,WindSpeedMPH,WindSpeedGustMPH,Humidity,HourlyPrecipIn,Conditions,Clouds,dailyrainin,SoftwareType,DateUTC
2013-06-06 02:11:00,51.4,48.6,30.05,East,79,0.0,0.0,90,0.00,,---,0.00,VWS V14.01,2013-06-06 09:11:00,
2013-06-06 02:28:00,50.6,48.4,30.05,SW,231,2.0,2.0,92,0.00,,---,0.00,VWS V14.01,2013-06-06 09:28:00,
2013-06-06 02:33:00,50.5,48.3,30.05,SW,231,0.0,1.0,92,0.00,,---,0.00,VWS V14.01,2013-06-06 09:33:00,
2013-06-06 02:38:00,50.4,48.2,30.05,SW,231,0.0,1.0,92,0.00,,---,0.00,VWS V14.01,2013-06-06 09:38:00,
2013-06-06 02:43:00,50.4,48.2,30.05,SW,231,1.0,1.0,92,0.00,,---,0.00,VWS V14.01,2013-06-06 09:43:00,
2013-06-06 02:48:00,50.6,48.7,30.05,ESE,105,1.0,2.0,93,0.00,,---,0.00,VWS V14.01,2013-06-06 09:48:00,
2013-06-06 02:53:00,50.6,48.4,30.05,East,90,1.0,2.0,92,0.00,,---,0.00,VWS V14.01,2013-06-06 09:53:00,
2013-06-06 02:58:00,50.6,48.4,30.04,East,90,1.0,2.0,92,0.00,,---,0.00,VWS V14.01,2013-06-06 09:58:00,
2013-06-06 03:03:00,50.6,48.4,30.04,East,90,1.0,2.0,92,0.00,,---,0.00,VWS V14.01,2013-06-06 10:03:00,
2013-06-06 03:08:00,50.6,48.4,30.04,East,86,1.0,2.0,92,0.00,,---,0.00,VWS V14.01,2013-06-06 10:08:00,
2013-06-06 03:13:00,50.5,48.3,30.04,East,80,1.0,2.0,92,0.00,,---,0.00,VWS V14.01,2013-06-06 10:13:00,
2013-06-06 03:18:00,50.4,48.2,30.04,East,80,1.0,1.0,92,0.00,,---,0.00,VWS V14.01,2013-06-06 10:18:00,
2013-06-06 03:23:00,50.3,48.1,30.04,East,80,0.0,1.0,92,0.00,,---,0.00,VWS V14.01,2013-06-06 10:23:00,
2013-06-06 03:28:00,50.3,48.1,30.04,East,80,0.0,1.0,92,0.00,,---,0.00,VWS V14.01,2013-06-06 10:28:00,
2013-06-06 03:33:00,50.3,48.4,30.04,ENE,69,2.0,2.0,93,0.00,,---,0.00,VWS V14.01,2013-06-06 10:33:00,
2013-06-06 03:38:00,50.6,48.7,30.04,NE,46,0.0,2.0,93,0.00,,---,0.00,VWS V14.01,2013-06-06 10:38:00,
2013-06-06 03:43:00,50.7,48.5,30.04,NE,46,2.0,2.0,92,0.00,,---,0.00,VWS V14.01,2013-06-06 10:43:00,
2013-06-06 03:48:00,50.7,48.5,30.04,NE,46,0.0,2.0,92,0.00,,---,0.00,VWS V14.01,2013-06-06 10:48:00,
2013-06-06 03:53:00,50.5,48.3,30.05,NE,46,1.0,2.0,92,0.00,,---,0.00,VWS V14.01,2013-06-06 10:53:00,
2013-06-06 03:58:00,50.4,48.2,30.05,NE,46,1.0,2.0,92,0.00,,---,0.00,VWS V14.01,2013-06-06 10:58:00,
2013-06-06 04:03:00,50.3,48.1,30.05,NE,46,0.0,2.0,92,0.00,,---,0.00,VWS V14.01,2013-06-06 11:03:00,
2013-06-06 04:08:00,50.1,47.9,30.05,NE,46,1.0,2.0,92,0.00,,---,0.00,VWS V14.01,2013-06-06 11:08:00,
2013-06-06 04:13:00,50.0,47.8,30.05,NE,46,1.0,2.0,92,0.00,,---,0.00,VWS V14.01,2013-06-06 11:13:00,
2013-06-06 04:18:00,49.8,47.6,30.05,NE,46,0.0,2.0,92,0.00,,---,0.00,VWS V14.01,2013-06-06 11:18:00,
2013-06-06 04:23:00,49.7,47.5,30.05,NE,46,1.0,2.0,92,0.00,,---,0.00,VWS V14.01,2013-06-06 11:23:00,
2013-06-06 04:28:00,49.5,47.6,30.05,NE,46,0.0,2.0,93,0.00,,---,0.00,VWS V14.01,2013-06-06 11:28:00,
2013-06-06 04:33:00,49.5,47.6,30.05,NE,46,0.0,1.0,93,0.00,,---,0.00,VWS V14.01,2013-06-06 11:33:00,
2013-06-06 04:38:00,49.4,47.5,30.05,NE,46,1.0,1.0,93,0.00,,---,0.00,VWS V14.01,2013-06-06 11:38:00,
2013-06-06 04:43:00,49.3,47.4,30.05,NE,46,1.0,2.0,93,0.00,,---,0.00,VWS V14.01,2013-06-06 11:43:00,
2013-06-06 04:48:00,49.1,47.2,30.05,NE,46,2.0,2.0,93,0.00,,---,0.00,VWS V14.01,2013-06-06 11:48:00,
2013-06-06 04:53:00,49.0,47.1,30.05,NE,46,2.0,3.0,93,0.00,,---,0.00,VWS V14.01,2013-06-06 11:53:00,
2013-06-06 04:58:00,49.0,47.1,30.05,NE,46,0.0,3.0,93,0.00,,---,0.00,VWS V14.01,2013-06-06 11:58:00,
2013-06-06 05:03:00,49.0,47.3,30.05,NE,46,2.0,2.0,94,0.00,,---,0.00,VWS V14.01,2013-06-06 12:03:00,
2013-06-06 05:08:00,49.0,47.1,30.05,NE,46,1.0,2.0,93,0.00,,---,0.00,VWS V14.01,2013-06-06 12:08:00,
2013-06-06 05:13:00,48.9,47.0,30.05,NE,46,1.0,2.0,93,0.00,,---,0.00,VWS V14.01,2013-06-06 12:13:00,
2013-06-06 05:18:00,48.9,47.2,30.05,NE,46,1.0,2.0,94,0.00,,---,0.00,VWS V14.01,2013-06-06 12:18:00,
2013-06-06 05:23:00,48.9,47.2,30.05,NE,46,1.0,2.0,94,0.00,,---,0.00,VWS V14.01,2013-06-06 12:23:00,
2013-06-06 05:28:00,48.9,47.2,30.05,NE,46,2.0,2.0,94,0.00,,---,0.00,VWS V14.01,2013-06-06 12:28:00,
2013-06-06 05:33:00,49.0,47.3,30.05,NE,46,0.0,2.0,94,0.00,,---,0.00,VWS V14.01,2013-06-06 12:33:00,
2013-06-06 05:38:00,49.2,47.5,30.05,NE,46,1.0,2.0,94,0.00,,---,0.00,VWS V14.01,2013-06-06 12:38:00,
2013-06-06 05:43:00,49.3,47.7,30.05,NE,46,1.0,2.0,94,0.00,,---,0.00,VWS V14.01,2013-06-06 12:43:00,
2013-06-06 05:48:00,49.3,47.7,30.05,NE,46,2.0,2.0,94,0.00,,---,0.00,VWS V14.01,2013-06-06 12:48:00,
2013-06-06 05:53:00,49.4,47.8,30.05,NE,46,0.0,3.0,94,0.00,,---,0.00,VWS V14.01,2013-06-06 12:53:00,
2013-06-06 05:58:00,49.5,47.8,30.05,NE,46,1.0,3.0,94,0.00,,---,0.00,VWS V14.01,2013-06-06 12:58:00,
2013-06-06 06:03:00,49.8,48.2,30.05,NE,46,1.0,2.0,94,0.00,,---,0.00,VWS V14.01,2013-06-06 13:03:00,
2013-06-06 06:08:00,49.9,48.2,30.06,NE,46,0.0,2.0,94,0.00,,---,0.00,VWS V14.01,2013-06-06 13:08:00,
2013-06-06 06:13:00,50.1,48.4,30.06,NE,46,1.0,2.0,94,0.00,,---,0.00,VWS V14.01,2013-06-06 13:13:00,
2013-06-06 06:18:00,50.3,48.6,30.06,NE,46,1.0,2.0,94,0.00,,---,0.00,VWS V14.01,2013-06-06 13:18:00,
2013-06-06 06:23:00,50.4,48.7,30.06,NE,46,0.0,2.0,94,0.00,,---,0.00,VWS V14.01,2013-06-06 13:23:00,
2013-06-06 06:28:00,50.5,48.8,30.06,NE,46,1.0,2.0,94,0.00,,---,0.00,VWS V14.01,2013-06-06 13:28:00,
2013-06-06 06:33:00,50.8,49.1,30.06,NE,46,1.0,2.0,94,0.00,,---,0.00,VWS V14.01,2013-06-06 13:33:00,
2013-06-06 06:38:00,51.2,49.5,30.06,NE,46,0.0,2.0,94,0.00,,---,0.00,VWS V14.01,2013-06-06 13:38:00,
2013-06-06 06:43:00,51.4,49.7,30.06,NE,46,1.0,2.0,94,0.00,,---,0.00,VWS V14.01,2013-06-06 13:43:00,
2013-06-06 06:48:00,51.9,49.9,30.06,NE,45,1.0,2.0,93,0.00,,---,0.00,VWS V14.01,2013-06-06 13:48:00,
2013-06-06 06:53:00,52.3,50.3,30.06,NE,45,1.0,2.0,93,0.00,,---,0.00,VWS V14.01,2013-06-06 13:53:00,
2013-06-06 06:58:00,53.0,50.7,30.06,NE,45,1.0,2.0,92,0.00,,---,0.00,VWS V14.01,2013-06-06 13:58:00,
2013-06-06 07:03:00,53.6,50.7,30.06,NE,45,1.0,2.0,90,0.00,,---,0.00,VWS V14.01,2013-06-06 14:03:00,
2013-06-06 07:08:00,54.4,51.2,30.06,NE,45,0.0,2.0,89,0.00,,---,0.00,VWS V14.01,2013-06-06 14:08:00,
2013-06-06 07:13:00,55.1,51.6,30.06,NE,45,0.0,2.0,88,0.00,,---,0.00,VWS V14.01,2013-06-06 14:13:00,
2013-06-06 07:18:00,55.8,51.7,30.06,NE,45,0.0,0.0,86,0.00,,---,0.00,VWS V14.01,2013-06-06 14:18:00,
2013-06-06 07:23:00,56.0,51.6,30.06,NE,45,0.0,0.0,85,0.00,,---,0.00,VWS V14.01,2013-06-06 14:23:00,
2013-06-06 07:28:00,56.5,52.0,30.06,NE,45,0.0,0.0,85,0.00,,---,0.00,VWS V14.01,2013-06-06 14:28:00,
2013-06-06 07:33:00,57.1,52.3,30.06,NE,45,0.0,0.0,84,0.00,,---,0.00,VWS V14.01,2013-06-06 14:33:00,
2013-06-06 07:38:00,57.7,52.6,30.06,NE,45,0.0,0.0,83,0.00,,---,0.00,VWS V14.01,2013-06-06 14:38:00,
2013-06-06 07:43:00,58.2,52.7,30.07,NE,45,0.0,0.0,82,0.00,,---,0.00,VWS V14.01,2013-06-06 14:43:00,
2013-06-06 07:48:00,58.5,53.0,30.06,NE,45,0.0,1.0,82,0.00,,---,0.00,VWS V14.01,2013-06-06 14:48:00,
2013-06-06 07:53:00,58.3,52.8,30.06,NE,45,0.0,1.0,82,0.00,,---,0.00,VWS V14.01,2013-06-06 14:53:00,
2013-06-06 07:58:00,58.3,52.8,30.06,NE,45,0.0,1.0,82,0.00,,---,0.00,VWS V14.01,2013-06-06 14:58:00,
2013-06-06 08:03:00,58.5,53.0,30.06,NW,320,1.0,2.0,82,0.00,,---,0.00,VWS V14.01,2013-06-06 15:03:00,
2013-06-06 08:08:00,58.1,52.6,30.06,NW,320,1.0,2.0,82,0.00,,---,0.00,VWS V14.01,2013-06-06 15:08:00,
2013-06-06 08:13:00,57.7,52.9,30.06,NW,320,1.0,2.0,84,0.00,,---,0.00,VWS V14.01,2013-06-06 15:13:00,
2013-06-06 08:18:00,58.0,53.2,30.06,NW,320,0.0,1.0,84,0.00,,---,0.00,VWS V14.01,2013-06-06 15:18:00,
2013-06-06 08:23:00,58.5,52.4,30.06,WNW,296,0.0,2.0,80,0.00,,---,0.00,VWS V14.01,2013-06-06 15:23:00,
2013-06-06 08:28:00,59.2,53.4,30.06,WNW,296,0.0,2.0,81,0.00,,---,0.00,VWS V14.01,2013-06-06 15:28:00,
2013-06-06 08:33:00,60.4,53.2,30.07,NNE,17,0.0,2.0,77,0.00,,---,0.00,VWS V14.01,2013-06-06 15:33:00,
2013-06-06 08:38:00,61.5,53.9,30.07,NNW,336,0.0,2.0,76,0.00,,---,0.00,VWS V14.01,2013-06-06 15:38:00,
2013-06-06 08:43:00,62.3,53.9,30.06,NNW,336,0.0,2.0,74,0.00,,---,0.00,VWS V14.01,2013-06-06 15:43:00,
2013-06-06 08:48:00,62.5,53.7,30.06,NNW,342,1.0,2.0,73,0.00,,---,0.00,VWS V14.01,2013-06-06 15:48:00,
2013-06-06 08:53:00,62.8,53.7,30.06,ENE,63,2.0,4.0,72,0.00,,---,0.00,VWS V14.01,2013-06-06 15:53:00,
2013-06-06 08:58:00,63.3,54.5,30.06,East,89,0.0,4.0,73,0.00,,---,0.00,VWS V14.01,2013-06-06 15:58:00,
2013-06-06 09:03:00,63.3,53.4,30.06,NE,55,3.0,3.0,70,0.00,,---,0.00,VWS V14.01,2013-06-06 16:03:00,
2013-06-06 09:08:00,63.8,53.5,30.07,NNW,329,2.0,4.0,69,0.00,,---,0.00,VWS V14.01,2013-06-06 16:08:00,
2013-06-06 09:13:00,63.8,53.8,30.06,NNE,26,1.0,4.0,70,0.00,,---,0.00,VWS V14.01,2013-06-06 16:13:00,
2013-06-06 09:18:00,64.4,54.0,30.07,NE,35,2.0,4.0,69,0.00,,---,0.00,VWS V14.01,2013-06-06 16:18:00,
2013-06-06 09:23:00,64.5,53.3,30.07,East,84,5.0,5.0,67,0.00,,---,0.00,VWS V14.01,2013-06-06 16:23:00,
2013-06-06 09:28:00,64.6,53.4,30.07,SSE,149,1.0,5.0,67,0.00,,---,0.00,VWS V14.01,2013-06-06 16:28:00,
2013-06-06 09:33:00,64.9,54.1,30.07,North,355,3.0,3.0,68,0.00,,---,0.00,VWS V14.01,2013-06-06 16:33:00,
2013-06-06 09:38:00,65.4,54.2,30.07,ENE,59,2.0,5.0,67,0.00,,---,0.00,VWS V14.01,2013-06-06 16:38:00,
2013-06-06 09:43:00,65.4,53.3,30.07,SW,228,2.0,5.0,65,0.00,,---,0.00,VWS V14.01,2013-06-06 16:43:00,
2013-06-06 09:48:00,64.2,53.0,30.07,West,277,0.0,3.0,67,0.00,,---,0.00,VWS V14.01,2013-06-06 16:48:00,
2013-06-06 09:53:00,63.8,53.0,30.06,NE,46,3.0,3.0,68,0.00,,---,0.00,VWS V14.01,2013-06-06 16:53:00,
2013-06-06 09:58:00,65.2,53.2,30.06,NNE,32,2.0,4.0,65,0.00,,---,0.00,VWS V14.01,2013-06-06 16:58:00,
2013-06-06 10:03:00,66.1,53.2,30.06,North,5,1.0,4.0,63,0.00,,---,0.00,VWS V14.01,2013-06-06 17:03:00,
2013-06-06 10:08:00,66.9,52.6,30.06,ENE,57,2.0,5.0,60,0.00,,---,0.00,VWS V14.01,2013-06-06 17:08:00,
2013-06-06 10:13:00,67.2,52.9,30.06,East,88,0.0,5.0,60,0.00,,---,0.00,VWS V14.01,2013-06-06 17:13:00,
2013-06-06 10:18:00,67.9,52.6,30.06,NE,36,5.0,5.0,58,0.00,,---,0.00,VWS V14.01,2013-06-06 17:18:00,
2013-06-06 10:23:00,68.5,52.7,30.06,ESE,107,2.0,5.0,57,0.00,,---,0.00,VWS V14.01,2013-06-06 17:23:00,
2013-06-06 10:28:00,68.0,52.2,30.06,ENE,69,0.0,5.0,57,0.00,,---,0.00,VWS V14.01,2013-06-06 17:28:00,
2013-06-06 10:33:00,68.5,51.7,30.06,NNW,338,1.0,5.0,55,0.00,,---,0.00,VWS V14.01,2013-06-06 17:33:00,
2013-06-06 10:38:00,68.8,51.5,30.06,ENE,66,3.0,6.0,54,0.00,,---,0.00,VWS V14.01,2013-06-06 17:38:00,
2013-06-06 10:43:00,68.8,51.0,30.06,SW,236,0.0,6.0,53,0.00,,---,0.00,VWS V14.01,2013-06-06 17:43:00,
2013-06-06 10:48:00,68.7,50.9,30.06,NE,38,5.0,5.0,53,0.00,,---,0.00,VWS V14.01,2013-06-06 17:48:00,
2013-06-06 10:53:00,69.0,50.7,30.06,NNE,13,1.0,5.0,52,0.00,,---,0.00,VWS V14.01,2013-06-06 17:53:00,
2013-06-06 10:58:00,69.3,50.9,30.06,ENE,63,3.0,6.0,52,0.00,,---,0.00,VWS V14.01,2013-06-06 17:58:00,
2013-06-06 11:03:00,68.7,51.4,30.06,NNE,15,2.0,4.0,54,0.00,,---,0.00,VWS V14.01,2013-06-06 18:03:00,
2013-06-06 11:08:00,69.2,51.4,30.06,North,5,4.0,4.0,53,0.00,,---,0.00,VWS V14.01,2013-06-06 18:08:00,
2013-06-06 11:13:00,69.6,51.2,30.05,ENE,59,3.0,6.0,52,0.00,,---,0.00,VWS V14.01,2013-06-06 18:13:00,
2013-06-06 11:18:00,69.8,51.4,30.05,ENE,67,1.0,2.0,52,0.00,,---,0.00,VWS V14.01,2013-06-06 18:18:00,
2013-06-06 11:23:00,69.6,50.2,30.05,NNW,327,1.0,5.0,50,0.00,,---,0.00,VWS V14.01,2013-06-06 18:23:00,
2013-06-06 11:28:00,69.7,51.8,30.05,ENE,66,3.0,7.0,53,0.00,,---,0.00,VWS V14.01,2013-06-06 18:28:00,
2013-06-06 11:33:00,69.9,50.4,30.05,NNE,19,4.0,5.0,50,0.00,,---,0.00,VWS V14.01,2013-06-06 18:33:00,
2013-06-06 11:38:00,70.2,49.6,30.06,ENE,65,4.0,5.0,48,0.00,,---,0.00,VWS V14.01,2013-06-06 18:38:00,
2013-06-06 11:43:00,70.0,50.0,30.06,NNE,13,0.0,7.0,49,0.00,,---,0.00,VWS V14.01,2013-06-06 18:43:00,
2013-06-06 11:48:00,70.1,50.6,30.06,WNW,292,2.0,5.0,50,0.00,,---,0.00,VWS V14.01,2013-06-06 18:48:00,
2013-06-06 11:53:00,70.2,49.6,30.06,ENE,70,5.0,7.0,48,0.00,,---,0.00,VWS V14.01,2013-06-06 18:53:00,
2013-06-06 11:58:00,70.1,50.6,30.06,ENE,65,2.0,7.0,50,0.00,,---,0.00,VWS V14.01,2013-06-06 18:58:00,
2013-06-06 12:03:00,70.1,50.1,30.06,ENE,57,4.0,4.0,49,0.00,,---,0.00,VWS V14.01,2013-06-06 19:03:00,
2013-06-06 12:08:00,70.8,51.3,30.05,North,5,0.0,6.0,50,0.00,,---,0.00,VWS V14.01,2013-06-06 19:08:00,
2013-06-06 12:13:00,71.3,50.6,30.06,NE,44,3.0,6.0,48,0.00,,---,0.00,VWS V14.01,2013-06-06 19:13:00,
2013-06-06 12:18:00,71.8,50.5,30.05,NNE,12,1.0,3.0,47,0.00,,---,0.00,VWS V14.01,2013-06-06 19:18:00,
2013-06-06 12:23:00,72.2,50.9,30.05,NNE,12,4.0,4.0,47,0.00,,---,0.00,VWS V14.01,2013-06-06 19:23:00,
2013-06-06 12:28:00,72.4,51.0,30.05,ENE,76,0.0,5.0,47,0.00,,---,0.00,VWS V14.01,2013-06-06 19:28:00,
2013-06-06 12:33:00,72.9,52.6,30.05,North,10,1.0,4.0,49,0.00,,---,0.00,VWS V14.01,2013-06-06 19:33:00,
2013-06-06 12:34:00,73.1,51.1,30.05,NE,52,2.0,4.0,46,0.00,,---,0.00,VWS V14.01,2013-06-06 19:34:00,
2013-06-06 12:39:00,72.9,49.7,30.05,SE,136,5.0,6.0,44,0.00,,---,0.00,VWS V14.01,2013-06-06 19:39:00,
2013-06-06 12:44:00,72.1,49.6,30.05,East,96,1.0,7.0,45,0.00,,---,0.00,VWS V14.01,2013-06-06 19:44:00,
2013-06-06 12:49:00,72.8,49.0,30.04,East,81,6.0,9.0,43,0.00,,---,0.00,VWS V14.01,2013-06-06 19:49:00,
2013-06-06 12:54:00,72.6,49.5,30.04,North,5,5.0,9.0,44,0.00,,---,0.00,VWS V14.01,2013-06-06 19:54:00,
2013-06-06 12:59:00,73.1,49.3,30.04,ENE,59,7.0,9.0,43,0.00,,---,0.00,VWS V14.01,2013-06-06 19:59:00,
2013-06-06 13:04:00,72.8,49.0,30.04,ENE,62,2.0,8.0,43,0.00,,---,0.00,VWS V14.01,2013-06-06 20:04:00,
2013-06-06 13:09:00,72.2,48.5,30.04,West,271,0.0,8.0,43,0.00,,---,0.00,VWS V14.01,2013-06-06 20:09:00,
2013-06-06 13:14:00,72.8,48.4,30.04,NNE,29,3.0,8.0,42,0.00,,---,0.00,VWS V14.01,2013-06-06 20:14:00,
2013-06-06 13:19:00,73.5,49.7,30.03,ENE,62,0.0,4.0,43,0.00,,---,0.00,VWS V14.01,2013-06-06 20:19:00,
2013-06-06 13:24:00,74.0,50.1,30.03,North,11,1.0,4.0,43,0.00,,---,0.00,VWS V14.01,2013-06-06 20:24:00,
2013-06-06 13:29:00,74.8,48.9,30.03,NNE,13,1.0,5.0,40,0.00,,---,0.00,VWS V14.01,2013-06-06 20:29:00,
2013-06-06 13:34:00,74.9,49.6,30.03,North,5,4.0,4.0,41,0.00,,---,0.00,VWS V14.01,2013-06-06 20:34:00,
2013-06-06 13:39:00,75.0,49.7,30.03,NNE,31,4.0,6.0,41,0.00,,---,0.00,VWS V14.01,2013-06-06 20:39:00,
2013-06-06 13:44:00,75.4,50.1,30.03,West,278,0.0,6.0,41,0.00,,---,0.00,VWS V14.01,2013-06-06 20:44:00,
2013-06-06 13:49:00,76.3,50.9,30.03,North,355,6.0,6.0,41,0.00,,---,0.00,VWS V14.01,2013-06-06 20:49:00,
2013-06-06 13:54:00,77.1,50.3,30.03,NNE,23,0.0,6.0,39,0.00,,---,0.00,VWS V14.01,2013-06-06 20:54:00,
2013-06-06 13:59:00,76.8,50.0,30.03,NE,36,2.0,8.0,39,0.00,,---,0.00,VWS V14.01,2013-06-06 20:59:00,
2013-06-06 14:04:00,76.2,52.7,30.03,NNE,30,3.0,5.0,44,0.00,,---,0.00,VWS V14.01,2013-06-06 21:04:00,
2013-06-06 14:09:00,76.0,50.0,30.03,NNE,19,5.0,6.0,40,0.00,,---,0.00,VWS V14.01,2013-06-06 21:09:00,
2013-06-06 14:14:00,75.5,50.2,30.03,NNE,15,1.0,6.0,41,0.00,,---,0.00,VWS V14.01,2013-06-06 21:14:00,
2013-06-06 14:19:00,75.2,49.9,30.03,NNE,17,3.0,7.0,41,0.00,,---,0.00,VWS V14.01,2013-06-06 21:19:00,
2013-06-06 14:24:00,75.4,50.7,30.03,ENE,71,4.0,7.0,42,0.00,,---,0.00,VWS V14.01,2013-06-06 21:24:00,
2013-06-06 14:29:00,75.2,49.9,30.03,ENE,63,1.0,8.0,41,0.00,,---,0.00,VWS V14.01,2013-06-06 21:29:00,
2013-06-06 14:34:00,74.7,49.5,30.03,East,94,5.0,7.0,41,0.00,,---,0.00,VWS V14.01,2013-06-06 21:34:00,
2013-06-06 14:39:00,74.7,50.7,30.03,ENE,70,1.0,9.0,43,0.00,,---,0.00,VWS V14.01,2013-06-06 21:39:00,
2013-06-06 14:44:00,76.0,51.3,30.02,ENE,71,7.0,9.0,42,0.00,,---,0.00,VWS V14.01,2013-06-06 21:44:00,
2013-06-06 14:49:00,75.6,50.3,30.03,ENE,78,0.0,5.0,41,0.00,,---,0.00,VWS V14.01,2013-06-06 21:49:00,
2013-06-06 14:54:00,75.8,50.5,30.02,NE,53,2.0,11.0,41,0.00,,---,0.00,VWS V14.01,2013-06-06 21:54:00,
2013-06-06 14:59:00,75.5,51.5,30.02,ENE,61,3.0,11.0,43,0.00,,---,0.00,VWS V14.01,2013-06-06 21:59:00,
2013-06-06 15:04:00,76.4,51.0,30.02,ENE,78,1.0,5.0,41,0.00,,---,0.00,VWS V14.01,2013-06-06 22:04:00,
2013-06-06 15:09:00,76.6,50.5,30.02,WNW,300,2.0,5.0,40,0.00,,---,0.00,VWS V14.01,2013-06-06 22:09:00,
2013-06-06 15:14:00,76.5,50.4,30.02,East,99,1.0,5.0,40,0.00,,---,0.00,VWS V14.01,2013-06-06 22:14:00,
2013-06-06 15:19:00,75.9,51.8,30.02,NE,44,5.0,6.0,43,0.00,,---,0.00,VWS V14.01,2013-06-06 22:19:00,
2013-06-06 15:24:00,75.1,50.5,30.02,NE,48,9.0,9.0,42,0.00,,---,0.00,VWS V14.01,2013-06-06 22:24:00,
2013-06-06 15:29:00,74.1,50.2,30.02,NNE,26,7.0,9.0,43,0.00,,---,0.00,VWS V14.01,2013-06-06 22:29:00,
2013-06-06 15:34:00,73.8,49.9,30.02,ENE,75,2.0,5.0,43,0.00,,---,0.00,VWS V14.01,2013-06-06 22:34:00,
2013-06-06 15:39:00,74.1,49.6,30.02,NE,47,5.0,8.0,42,0.00,,---,0.00,VWS V14.01,2013-06-06 22:39:00,
2013-06-06 15:44:00,74.1,50.8,30.02,ENE,76,2.0,8.0,44,0.00,,---,0.00,VWS V14.01,2013-06-06 22:44:00,
2013-06-06 15:49:00,74.0,50.1,30.02,East,84,2.0,9.0,43,0.00,,---,0.00,VWS V14.01,2013-06-06 22:49:00,
2013-06-06 15:54:00,74.2,51.5,30.02,ENE,76,2.0,9.0,45,0.00,,---,0.00,VWS V14.01,2013-06-06 22:54:00,
2013-06-06 15:59:00,74.6,51.9,30.02,NNE,16,4.0,9.0,45,0.00,,---,0.00,VWS V14.01,2013-06-06 22:59:00,
2013-06-06 16:04:00,74.6,51.9,30.02,NE,35,0.0,8.0,45,0.00,,---,0.00,VWS V14.01,2013-06-06 23:04:00,
2013-06-06 16:09:00,74.4,52.9,30.03,NNE,17,2.0,8.0,47,0.00,,---,0.00,VWS V14.01,2013-06-06 23:09:00,
2013-06-06 16:14:00,74.0,52.5,30.02,ENE,58,3.0,8.0,47,0.00,,---,0.00,VWS V14.01,2013-06-06 23:14:00,
2013-06-06 16:19:00,73.5,53.2,30.02,ESE,119,0.0,4.0,49,0.00,,---,0.00,VWS V14.01,2013-06-06 23:19:00,
2013-06-06 16:24:00,73.0,52.7,30.03,ENE,76,5.0,8.0,49,0.00,,---,0.00,VWS V14.01,2013-06-06 23:24:00,
2013-06-06 16:29:00,72.6,52.4,30.02,ENE,68,3.0,8.0,49,0.00,,---,0.00,VWS V14.01,2013-06-06 23:29:00,
2013-06-06 16:34:00,72.1,51.3,30.02,ENE,77,4.0,7.0,48,0.00,,---,0.00,VWS V14.01,2013-06-06 23:34:00,
2013-06-06 16:39:00,71.8,52.7,30.03,ENE,70,8.0,8.0,51,0.00,,---,0.00,VWS V14.01,2013-06-06 23:39:00,
2013-06-06 16:44:00,71.9,51.7,30.03,NNW,333,4.0,8.0,49,0.00,,---,0.00,VWS V14.01,2013-06-06 23:44:00,
2013-06-06 16:49:00,72.1,51.9,30.03,NE,43,2.0,8.0,49,0.00,,---,0.00,VWS V14.01,2013-06-06 23:49:00,
2013-06-06 16:54:00,72.2,51.4,30.02,ENE,76,2.0,10.0,48,0.00,,---,0.00,VWS V14.01,2013-06-06 23:54:00,
2013-06-06 16:59:00,72.1,52.5,30.02,ENE,61,1.0,10.0,50,0.00,,---,0.00,VWS V14.01,2013-06-06 23:59:00,
2013-06-06 17:03:00,71.8,50.5,30.02,NE,41,2.0,8.0,47,0.00,,---,0.00,VWS V14.01,2013-06-07 00:03:00,
2013-06-06 17:08:00,72.1,50.8,30.03,NE,53,6.0,8.0,47,0.00,,---,0.00,VWS V14.01,2013-06-07 00:08:00,
2013-06-06 17:13:00,72.3,50.4,30.03,NE,53,5.0,8.0,46,0.00,,---,0.00,VWS V14.01,2013-06-07 00:13:00,
2013-06-06 17:18:00,71.7,50.4,30.03,East,95,5.0,7.0,47,0.00,,---,0.00,VWS V14.01,2013-06-07 00:18:00,
2013-06-06 17:23:00,71.6,50.9,30.03,ENE,67,7.0,8.0,48,0.00,,---,0.00,VWS V14.01,2013-06-07 00:23:00,
2013-06-06 17:28:00,71.9,51.7,30.03,NE,47,4.0,8.0,49,0.00,,---,0.00,VWS V14.01,2013-06-07 00:28:00,
2013-06-06 17:33:00,71.3,51.2,30.03,North,5,4.0,8.0,49,0.00,,---,0.00,VWS V14.01,2013-06-07 00:33:00,
2013-06-06 17:38:00,71.2,51.6,30.03,ENE,73,2.0,8.0,50,0.00,,---,0.00,VWS V14.01,2013-06-07 00:38:00,
2013-06-06 17:43:00,71.1,51.0,30.03,ENE,67,1.0,9.0,49,0.00,,---,0.00,VWS V14.01,2013-06-07 00:43:00,
2013-06-06 17:48:00,71.3,50.6,30.03,ENE,67,3.0,7.0,48,0.00,,---,0.00,VWS V14.01,2013-06-07 00:48:00,
2013-06-06 17:53:00,71.6,52.0,30.02,ENE,57,9.0,9.0,50,0.00,,---,0.00,VWS V14.01,2013-06-07 00:53:00,
2013-06-06 17:58:00,71.5,50.2,30.02,East,92,3.0,9.0,47,0.00,,---,0.00,VWS V14.01,2013-06-07 00:58:00,
2013-06-06 18:03:00,71.7,49.2,30.02,NNE,17,0.0,8.0,45,0.00,,---,0.00,VWS V14.01,2013-06-07 01:03:00,
2013-06-06 18:08:00,72.3,50.4,30.02,North,5,2.0,8.0,46,0.00,,---,0.00,VWS V14.01,2013-06-07 01:08:00,
2013-06-06 18:13:00,72.3,50.4,30.02,NE,37,6.0,8.0,46,0.00,,---,0.00,VWS V14.01,2013-06-07 01:13:00,
2013-06-06 18:18:00,70.4,50.3,30.02,ENE,71,2.0,10.0,49,0.00,,---,0.00,VWS V14.01,2013-06-07 01:18:00,
2013-06-06 18:23:00,69.1,50.2,30.02,NE,37,8.0,10.0,51,0.00,,---,0.00,VWS V14.01,2013-06-07 01:23:00,
2013-06-06 18:28:00,68.3,51.0,30.02,ENE,58,3.0,10.0,54,0.00,,---,0.00,VWS V14.01,2013-06-07 01:28:00,
2013-06-06 18:33:00,67.9,50.7,30.02,NNW,340,1.0,9.0,54,0.00,,---,0.00,VWS V14.01,2013-06-07 01:33:00,
2013-06-06 18:38:00,67.6,51.4,30.02,ENE,60,1.0,9.0,56,0.00,,---,0.00,VWS V14.01,2013-06-07 01:38:00,
2013-06-06 18:43:00,67.4,51.7,30.02,North,360,6.0,9.0,57,0.00,,---,0.00,VWS V14.01,2013-06-07 01:43:00,
2013-06-06 18:48:00,67.2,51.5,30.02,NE,51,0.0,6.0,57,0.00,,---,0.00,VWS V14.01,2013-06-07 01:48:00,
2013-06-06 18:53:00,67.2,51.5,30.02,NE,49,5.0,6.0,57,0.00,,---,0.00,VWS V14.01,2013-06-07 01:53:00,
2013-06-06 18:58:00,67.2,51.9,30.02,East,88,1.0,6.0,58,0.00,,---,0.00,VWS V14.01,2013-06-07 01:58:00,
2013-06-06 19:03:00,67.2,51.5,30.02,East,81,2.0,6.0,57,0.00,,---,0.00,VWS V14.01,2013-06-07 02:03:00,
2013-06-06 19:08:00,67.0,51.3,30.02,NE,38,1.0,7.0,57,0.00,,---,0.00,VWS V14.01,2013-06-07 02:08:00,
2013-06-06 19:13:00,66.9,51.2,30.02,NNE,30,5.0,7.0,57,0.00,,---,0.00,VWS V14.01,2013-06-07 02:13:00,
2013-06-06 19:18:00,66.7,51.5,30.02,ENE,63,2.0,3.0,58,0.00,,---,0.00,VWS V14.01,2013-06-07 02:18:00,
2013-06-06 19:23:00,66.4,51.2,30.02,ENE,59,1.0,3.0,58,0.00,,---,0.00,VWS V14.01,2013-06-07 02:23:00,
2013-06-06 19:28:00,66.2,51.9,30.02,ENE,72,0.0,5.0,60,0.00,,---,0.00,VWS V14.01,2013-06-07 02:28:00,
2013-06-06 19:33:00,65.9,51.6,30.02,NE,44,0.0,3.0,60,0.00,,---,0.00,VWS V14.01,2013-06-07 02:33:00,
2013-06-06 19:38:00,65.6,51.8,30.02,NE,51,1.0,3.0,61,0.00,,---,0.00,VWS V14.01,2013-06-07 02:38:00,
2013-06-06 19:43:00,65.1,51.8,30.02,NE,45,2.0,4.0,62,0.00,,---,0.00,VWS V14.01,2013-06-07 02:43:00,
2013-06-06 19:48:00,64.9,51.6,30.02,ENE,75,1.0,2.0,62,0.00,,---,0.00,VWS V14.01,2013-06-07 02:48:00,
2013-06-06 19:53:00,64.6,51.7,30.02,NE,54,3.0,3.0,63,0.00,,---,0.00,VWS V14.01,2013-06-07 02:53:00,
2013-06-06 19:58:00,64.5,51.6,30.02,ENE,73,2.0,7.0,63,0.00,,---,0.00,VWS V14.01,2013-06-07 02:58:00,
2013-06-06 20:03:00,64.7,51.8,30.02,ENE,61,4.0,5.0,63,0.00,,---,0.00,VWS V14.01,2013-06-07 03:03:00,
2013-06-06 20:08:00,64.6,52.2,30.02,East,98,3.0,5.0,64,0.00,,---,0.00,VWS V14.01,2013-06-07 03:08:00,
2013-06-06 20:13:00,64.5,52.1,30.02,ENE,67,2.0,5.0,64,0.00,,---,0.00,VWS V14.01,2013-06-07 03:13:00,
2013-06-06 20:18:00,64.6,52.6,30.02,ENE,62,0.0,2.0,65,0.00,,---,0.00,VWS V14.01,2013-06-07 03:18:00,
2013-06-06 20:23:00,64.9,52.5,30.02,ENE,61,1.0,2.0,64,0.00,,---,0.00,VWS V14.01,2013-06-07 03:23:00,
2013-06-06 20:28:00,65.3,52.4,30.02,ENE,61,1.0,2.0,63,0.00,,---,0.00,VWS V14.01,2013-06-07 03:28:00,
2013-06-06 20:33:00,65.4,52.5,30.02,North,355,0.0,1.0,63,0.00,,---,0.00,VWS V14.01,2013-06-07 03:33:00,
2013-06-06 20:38:00,65.4,52.9,30.03,North,355,0.0,2.0,64,0.00,,---,0.00,VWS V14.01,2013-06-07 03:38:00,
2013-06-06 20:43:00,65.2,52.7,30.03,East,89,1.0,2.0,64,0.00,,---,0.00,VWS V14.01,2013-06-07 03:43:00,
2013-06-06 20:48:00,64.5,52.5,30.02,ENE,67,1.0,3.0,65,0.00,,---,0.00,VWS V14.01,2013-06-07 03:48:00,
2013-06-06 20:53:00,63.9,52.7,30.02,NE,45,2.0,3.0,67,0.00,,---,0.00,VWS V14.01,2013-06-07 03:53:00,
2013-06-06 20:58:00,63.4,52.3,30.02,ENE,61,3.0,4.0,67,0.00,,---,0.00,VWS V14.01,2013-06-07 03:58:00,
2013-06-06 21:01:00,63.2,52.1,30.02,NE,55,2.0,3.0,67,0.00,,---,0.00,VWS V14.01,2013-06-07 04:01:00,
2013-06-06 21:06:00,62.8,50.5,30.02,ENE,61,2.0,5.0,64,0.00,,---,0.00,VWS V14.01,2013-06-07 04:06:00,
2013-06-06 21:11:00,62.5,51.4,30.01,East,84,5.0,5.0,67,0.00,,---,0.00,VWS V14.01,2013-06-07 04:11:00,
2013-06-06 21:16:00,62.2,50.3,30.01,NE,50,2.0,5.0,65,0.00,,---,0.00,VWS V14.01,2013-06-07 04:16:00,
2013-06-06 21:21:00,62.0,50.1,30.02,ENE,63,1.0,5.0,65,0.00,,---,0.00,VWS V14.01,2013-06-07 04:21:00,
2013-06-06 21:26:00,61.7,50.2,30.02,ENE,68,1.0,5.0,66,0.00,,---,0.00,VWS V14.01,2013-06-07 04:26:00,
2013-06-06 21:31:00,61.4,49.5,30.02,NE,49,4.0,4.0,65,0.00,,---,0.00,VWS V14.01,2013-06-07 04:31:00,
2013-06-06 21:36:00,61.0,49.2,30.02,ENE,66,3.0,4.0,65,0.00,,---,0.00,VWS V14.01,2013-06-07 04:36:00,
2013-06-06 21:42:00,60.6,48.8,30.02,East,79,3.0,7.0,65,0.00,,---,0.00,VWS V14.01,2013-06-07 04:42:00,
2013-06-06 21:47:00,60.3,48.9,30.02,ENE,74,3.0,3.0,66,0.00,,---,0.00,VWS V14.01,2013-06-07 04:47:00,
2013-06-06 21:52:00,59.9,47.7,30.03,ENE,71,2.0,5.0,64,0.00,,---,0.00,VWS V14.01,2013-06-07 04:52:00,